sensor_id;sensor_type;location;lat;lon;timestamp;pressure;altitude;pressure_sealevel;temperature;humidity
38630;BME280;24384;51.988;4.644;2023-06-04T00:02:02;102317.97;;;14.71;60.32
38630;BME280;24384;51.988;4.644;2023-06-04T00:04:27;102324.22;;;14.68;61.52
38630;BME280;24384;51.988;4.644;2023-06-04T00:06:54;102317.19;;;14.67;61.08
38630;BME280;24384;51.988;4.644;2023-06-04T00:09:19;102322.44;;;14.71;60.73
38630;BME280;24384;51.988;4.644;2023-06-04T00:11:46;102331.28;;;14.70;60.82
38630;BME280;24384;51.988;4.644;2023-06-04T00:14:12;102323.56;;;14.60;61.21
38630;BME280;24384;51.988;4.644;2023-06-04T00:16:38;102326.31;;;14.56;61.44
38630;BME280;24384;51.988;4.644;2023-06-04T00:19:03;102320.09;;;14.57;61.00
38630;BME280;24384;51.988;4.644;2023-06-04T00:21:28;102322.69;;;14.61;60.80
38630;BME280;24384;51.988;4.644;2023-06-04T00:23:54;102317.41;;;14.58;61.08
38630;BME280;24384;51.988;4.644;2023-06-04T00:26:19;102332.56;;;14.53;61.55
38630;BME280;24384;51.988;4.644;2023-06-04T00:28:45;102323.78;;;14.51;62.26
38630;BME280;24384;51.988;4.644;2023-06-04T00:31:10;102323.88;;;14.48;61.54
38630;BME280;24384;51.988;4.644;2023-06-04T00:33:38;102323.16;;;14.41;61.81
38630;BME280;24384;51.988;4.644;2023-06-04T00:36:03;102321.31;;;14.43;61.98
38630;BME280;24384;51.988;4.644;2023-06-04T00:38:30;102332.97;;;14.38;62.48
38630;BME280;24384;51.988;4.644;2023-06-04T00:40:57;102327.50;;;14.44;61.97
38630;BME280;24384;51.988;4.644;2023-06-04T00:43:23;102324.13;;;14.37;62.26
38630;BME280;24384;51.988;4.644;2023-06-04T00:45:51;102319.91;;;14.28;62.57
38630;BME280;24384;51.988;4.644;2023-06-04T00:48:16;102325.28;;;14.27;62.69
38630;BME280;24384;51.988;4.644;2023-06-04T00:50:42;102330.63;;;14.25;62.16
38630;BME280;24384;51.988;4.644;2023-06-04T00:53:07;102327.97;;;14.25;61.85
38630;BME280;24384;51.988;4.644;2023-06-04T00:55:33;102332.75;;;14.11;63.05
38630;BME280;24384;51.988;4.644;2023-06-04T00:57:58;102331.97;;;14.07;63.55
38630;BME280;24384;51.988;4.644;2023-06-04T01:00:26;102324.66;;;14.15;62.75
38630;BME280;24384;51.988;4.644;2023-06-04T01:02:52;102328.56;;;14.01;63.29
38630;BME280;24384;51.988;4.644;2023-06-04T01:05:49;102336.50;;;14.01;63.12
38630;BME280;24384;51.988;4.644;2023-06-04T01:08:17;102333.91;;;13.99;63.39
38630;BME280;24384;51.988;4.644;2023-06-04T01:10:55;102333.19;;;13.92;63.44
38630;BME280;24384;51.988;4.644;2023-06-04T01:13:21;102330.50;;;13.94;63.36
38630;BME280;24384;51.988;4.644;2023-06-04T01:15:47;102333.38;;;13.83;64.20
38630;BME280;24384;51.988;4.644;2023-06-04T01:18:15;102336.00;;;13.85;63.21
38630;BME280;24384;51.988;4.644;2023-06-04T01:21:04;102333.59;;;13.74;64.18
38630;BME280;24384;51.988;4.644;2023-06-04T01:23:40;102334.47;;;13.74;64.05
38630;BME280;24384;51.988;4.644;2023-06-04T01:26:11;102342.59;;;13.67;64.76
38630;BME280;24384;51.988;4.644;2023-06-04T01:28:37;102339.03;;;13.68;64.28
38630;BME280;24384;51.988;4.644;2023-06-04T01:31:03;102336.44;;;13.66;64.81
38630;BME280;24384;51.988;4.644;2023-06-04T01:33:29;102330.19;;;13.69;64.02
38630;BME280;24384;51.988;4.644;2023-06-04T01:35:55;102334.06;;;13.52;64.94
38630;BME280;24384;51.988;4.644;2023-06-04T01:38:21;102338.50;;;13.52;64.52
38630;BME280;24384;51.988;4.644;2023-06-04T01:40:46;102328.91;;;13.46;65.34
38630;BME280;24384;51.988;4.644;2023-06-04T01:43:12;102330.78;;;13.41;64.82
38630;BME280;24384;51.988;4.644;2023-06-04T01:45:37;102328.84;;;13.49;64.55
38630;BME280;24384;51.988;4.644;2023-06-04T01:48:04;102334.31;;;13.41;64.46
38630;BME280;24384;51.988;4.644;2023-06-04T01:50:32;102328.88;;;13.48;63.91
38630;BME280;24384;51.988;4.644;2023-06-04T01:52:57;102327.25;;;13.40;64.16
38630;BME280;24384;51.988;4.644;2023-06-04T01:55:24;102329.09;;;13.37;64.47
38630;BME280;24384;51.988;4.644;2023-06-04T01:57:50;102321.06;;;13.41;63.64
38630;BME280;24384;51.988;4.644;2023-06-04T02:00:16;102324.56;;;13.42;63.36
38630;BME280;24384;51.988;4.644;2023-06-04T02:02:43;102324.72;;;13.34;64.07
38630;BME280;24384;51.988;4.644;2023-06-04T02:05:10;102322.25;;;13.25;64.31
38630;BME280;24384;51.988;4.644;2023-06-04T02:07:39;102328.75;;;13.10;65.50
38630;BME280;24384;51.988;4.644;2023-06-04T02:10:10;102316.28;;;13.14;65.16
38630;BME280;24384;51.988;4.644;2023-06-04T02:12:37;102324.50;;;13.00;66.10
38630;BME280;24384;51.988;4.644;2023-06-04T02:15:03;102322.88;;;12.93;65.93
38630;BME280;24384;51.988;4.644;2023-06-04T02:17:29;102320.91;;;13.04;65.46
38630;BME280;24384;51.988;4.644;2023-06-04T02:19:58;102319.81;;;13.14;64.43
38630;BME280;24384;51.988;4.644;2023-06-04T02:22:24;102316.59;;;12.98;65.36
38630;BME280;24384;51.988;4.644;2023-06-04T02:24:49;102319.31;;;12.95;65.28
38630;BME280;24384;51.988;4.644;2023-06-04T02:27:15;102321.13;;;12.93;65.21
38630;BME280;24384;51.988;4.644;2023-06-04T02:29:40;102329.28;;;12.82;66.28
38630;BME280;24384;51.988;4.644;2023-06-04T02:32:06;102323.69;;;12.98;64.42
38630;BME280;24384;51.988;4.644;2023-06-04T02:34:32;102329.94;;;12.94;64.96
38630;BME280;24384;51.988;4.644;2023-06-04T02:36:59;102325.19;;;13.10;63.45
38630;BME280;24384;51.988;4.644;2023-06-04T02:39:25;102332.69;;;12.87;65.49
38630;BME280;24384;51.988;4.644;2023-06-04T02:41:50;102330.94;;;12.86;65.12
38630;BME280;24384;51.988;4.644;2023-06-04T02:44:15;102330.19;;;12.80;65.13
38630;BME280;24384;51.988;4.644;2023-06-04T02:46:43;102329.22;;;12.85;65.12
38630;BME280;24384;51.988;4.644;2023-06-04T02:49:09;102331.97;;;12.79;65.36
38630;BME280;24384;51.988;4.644;2023-06-04T02:51:34;102333.06;;;12.67;65.84
38630;BME280;24384;51.988;4.644;2023-06-04T02:53:59;102332.91;;;12.77;64.93
38630;BME280;24384;51.988;4.644;2023-06-04T02:56:25;102331.13;;;12.76;64.89
38630;BME280;24384;51.988;4.644;2023-06-04T02:58:54;102330.16;;;12.81;64.80
38630;BME280;24384;51.988;4.644;2023-06-04T03:01:21;102329.41;;;12.75;64.37
38630;BME280;24384;51.988;4.644;2023-06-04T03:03:47;102325.84;;;12.76;64.11
38630;BME280;24384;51.988;4.644;2023-06-04T03:06:13;102322.38;;;12.74;64.82
38630;BME280;24384;51.988;4.644;2023-06-04T03:08:42;102317.06;;;12.74;64.45
38630;BME280;24384;51.988;4.644;2023-06-04T03:11:07;102325.19;;;12.64;65.42
38630;BME280;24384;51.988;4.644;2023-06-04T03:13:32;102319.91;;;12.63;64.33
38630;BME280;24384;51.988;4.644;2023-06-04T03:15:58;102330.59;;;12.57;65.15
38630;BME280;24384;51.988;4.644;2023-06-04T03:18:26;102320.97;;;12.52;65.00
38630;BME280;24384;51.988;4.644;2023-06-04T03:20:55;102323.44;;;12.62;64.50
38630;BME280;24384;51.988;4.644;2023-06-04T03:23:21;102322.63;;;12.60;64.27
38630;BME280;24384;51.988;4.644;2023-06-04T03:25:46;102321.72;;;12.61;63.10
38630;BME280;24384;51.988;4.644;2023-06-04T03:28:11;102322.63;;;12.58;63.71
38630;BME280;24384;51.988;4.644;2023-06-04T03:30:37;102321.78;;;12.58;63.89
38630;BME280;24384;51.988;4.644;2023-06-04T03:33:02;102322.97;;;12.40;65.47
38630;BME280;24384;51.988;4.644;2023-06-04T03:35:27;102325.59;;;12.40;64.75
38630;BME280;24384;51.988;4.644;2023-06-04T03:37:53;102326.50;;;12.39;64.70
38630;BME280;24384;51.988;4.644;2023-06-04T03:40:19;102328.31;;;12.36;64.69
38630;BME280;24384;51.988;4.644;2023-06-04T03:42:45;102321.91;;;12.50;63.78
38630;BME280;24384;51.988;4.644;2023-06-04T03:45:10;102323.81;;;12.40;64.25
38630;BME280;24384;51.988;4.644;2023-06-04T03:47:37;102321.00;;;12.51;64.23
38630;BME280;24384;51.988;4.644;2023-06-04T03:50:03;102324.50;;;12.53;63.76
38630;BME280;24384;51.988;4.644;2023-06-04T03:52:28;102327.34;;;12.42;64.91
38630;BME280;24384;51.988;4.644;2023-06-04T03:54:53;102320.91;;;12.56;64.49
38630;BME280;24384;51.988;4.644;2023-06-04T03:57:19;102335.34;;;12.39;64.83
38630;BME280;24384;51.988;4.644;2023-06-04T03:59:44;102335.28;;;12.42;64.76
38630;BME280;24384;51.988;4.644;2023-06-04T04:02:10;102328.97;;;12.49;64.64
38630;BME280;24384;51.988;4.644;2023-06-04T04:04:35;102321.69;;;12.62;63.78
38630;BME280;24384;51.988;4.644;2023-06-04T04:07:02;102334.94;;;12.62;64.32
38630;BME280;24384;51.988;4.644;2023-06-04T04:09:27;102332.16;;;12.70;63.37
38630;BME280;24384;51.988;4.644;2023-06-04T04:11:52;102332.22;;;12.65;64.17
38630;BME280;24384;51.988;4.644;2023-06-04T04:14:17;102332.28;;;12.62;64.85
38630;BME280;24384;51.988;4.644;2023-06-04T04:16:43;102328.34;;;12.83;63.48
38630;BME280;24384;51.988;4.644;2023-06-04T04:19:08;102326.56;;;12.85;63.65
38630;BME280;24384;51.988;4.644;2023-06-04T04:21:37;102325.59;;;12.89;63.10
38630;BME280;24384;51.988;4.644;2023-06-04T04:24:03;102332.53;;;12.97;62.98
38630;BME280;24384;51.988;4.644;2023-06-04T04:26:29;102325.31;;;13.03;62.90
38630;BME280;24384;51.988;4.644;2023-06-04T04:28:55;102329.69;;;13.06;63.32
38630;BME280;24384;51.988;4.644;2023-06-04T04:31:32;102324.28;;;13.12;63.21
38630;BME280;24384;51.988;4.644;2023-06-04T04:34:01;102322.34;;;13.20;62.81
38630;BME280;24384;51.988;4.644;2023-06-04T04:36:33;102323.03;;;13.30;61.79
38630;BME280;24384;51.988;4.644;2023-06-04T04:38:59;102328.09;;;13.42;62.01
38630;BME280;24384;51.988;4.644;2023-06-04T04:41:25;102328.06;;;13.44;62.03
38630;BME280;24384;51.988;4.644;2023-06-04T04:43:52;102327.16;;;13.45;62.56
38630;BME280;24384;51.988;4.644;2023-06-04T04:46:18;102329.59;;;13.54;62.90
38630;BME280;24384;51.988;4.644;2023-06-04T04:48:43;102319.72;;;13.63;61.48
38630;BME280;24384;51.988;4.644;2023-06-04T04:51:09;102321.03;;;13.82;61.25
38630;BME280;24384;51.988;4.644;2023-06-04T04:53:34;102322.78;;;13.83;60.56
38630;BME280;24384;51.988;4.644;2023-06-04T04:56:00;102323.47;;;13.91;61.49
38630;BME280;24384;51.988;4.644;2023-06-04T04:58:26;102317.13;;;13.99;61.09
38630;BME280;24384;51.988;4.644;2023-06-04T05:00:51;102324.97;;;14.03;61.13
38630;BME280;24384;51.988;4.644;2023-06-04T05:03:17;102316.72;;;14.15;60.37
38630;BME280;24384;51.988;4.644;2023-06-04T05:05:42;102326.28;;;14.23;61.41
38630;BME280;24384;51.988;4.644;2023-06-04T05:08:08;102326.38;;;14.18;60.83
38630;BME280;24384;51.988;4.644;2023-06-04T05:10:34;102330.66;;;14.24;60.75
38630;BME280;24384;51.988;4.644;2023-06-04T05:13:01;102324.25;;;14.32;59.90
38630;BME280;24384;51.988;4.644;2023-06-04T05:15:27;102323.28;;;14.37;61.17
38630;BME280;24384;51.988;4.644;2023-06-04T05:17:52;102325.69;;;14.46;60.57
38630;BME280;24384;51.988;4.644;2023-06-04T05:20:19;102329.28;;;14.43;60.18
38630;BME280;24384;51.988;4.644;2023-06-04T05:22:46;102330.31;;;14.38;60.20
38630;BME280;24384;51.988;4.644;2023-06-04T05:25:11;102329.16;;;14.48;60.25
38630;BME280;24384;51.988;4.644;2023-06-04T05:27:37;102341.31;;;14.58;60.30
38630;BME280;24384;51.988;4.644;2023-06-04T05:30:03;102343.06;;;14.58;60.52
38630;BME280;24384;51.988;4.644;2023-06-04T05:32:28;102332.88;;;14.77;60.03
38630;BME280;24384;51.988;4.644;2023-06-04T05:34:54;102332.84;;;14.78;58.80
38630;BME280;24384;51.988;4.644;2023-06-04T05:37:22;102329.22;;;14.81;60.89
38630;BME280;24384;51.988;4.644;2023-06-04T05:39:49;102332.81;;;14.80;58.75
38630;BME280;24384;51.988;4.644;2023-06-04T05:42:14;102335.53;;;14.77;59.08
38630;BME280;24384;51.988;4.644;2023-06-04T05:44:40;102338.66;;;14.93;59.57
38630;BME280;24384;51.988;4.644;2023-06-04T05:47:05;102338.59;;;14.94;59.93
38630;BME280;24384;51.988;4.644;2023-06-04T05:49:31;102335.72;;;15.02;58.06
38630;BME280;24384;51.988;4.644;2023-06-04T05:51:56;102342.66;;;15.08;59.99
38630;BME280;24384;51.988;4.644;2023-06-04T05:54:21;102334.88;;;15.01;59.55
38630;BME280;24384;51.988;4.644;2023-06-04T05:56:46;102346.84;;;15.16;58.37
38630;BME280;24384;51.988;4.644;2023-06-04T05:59:12;102350.25;;;15.21;59.99
38630;BME280;24384;51.988;4.644;2023-06-04T06:01:37;102339.84;;;15.44;59.13
38630;BME280;24384;51.988;4.644;2023-06-04T06:04:03;102345.16;;;15.44;58.58
38630;BME280;24384;51.988;4.644;2023-06-04T06:06:28;102349.25;;;15.55;56.77
38630;BME280;24384;51.988;4.644;2023-06-04T06:08:53;102343.06;;;15.55;57.58
38630;BME280;24384;51.988;4.644;2023-06-04T06:11:19;102346.03;;;15.74;58.18
38630;BME280;24384;51.988;4.644;2023-06-04T06:13:45;102346.84;;;15.76;58.67
38630;BME280;24384;51.988;4.644;2023-06-04T06:16:10;102344.44;;;15.68;57.29
38630;BME280;24384;51.988;4.644;2023-06-04T06:18:35;102348.66;;;15.77;57.84
38630;BME280;24384;51.988;4.644;2023-06-04T06:21:01;102354.41;;;15.91;58.52
38630;BME280;24384;51.988;4.644;2023-06-04T06:23:26;102345.94;;;15.79;56.93
38630;BME280;24384;51.988;4.644;2023-06-04T06:25:51;102351.38;;;15.74;57.54
38630;BME280;24384;51.988;4.644;2023-06-04T06:28:17;102356.97;;;15.95;57.44
38630;BME280;24384;51.988;4.644;2023-06-04T06:30:43;102351.16;;;16.10;56.60
38630;BME280;24384;51.988;4.644;2023-06-04T06:33:09;102356.44;;;16.38;56.73
38630;BME280;24384;51.988;4.644;2023-06-04T06:35:34;102356.63;;;16.32;55.81
38630;BME280;24384;51.988;4.644;2023-06-04T06:38:00;102357.03;;;16.46;55.38
38630;BME280;24384;51.988;4.644;2023-06-04T06:40:25;102364.69;;;16.56;55.74
38630;BME280;24384;51.988;4.644;2023-06-04T06:42:50;102372.13;;;16.73;56.29
38630;BME280;24384;51.988;4.644;2023-06-04T06:45:17;102367.16;;;16.62;56.78
38630;BME280;24384;51.988;4.644;2023-06-04T06:47:43;102367.56;;;16.76;56.15
38630;BME280;24384;51.988;4.644;2023-06-04T06:50:09;102365.69;;;17.05;56.09
38630;BME280;24384;51.988;4.644;2023-06-04T06:52:35;102361.66;;;17.18;55.45
38630;BME280;24384;51.988;4.644;2023-06-04T06:55:01;102361.13;;;17.32;54.32
38630;BME280;24384;51.988;4.644;2023-06-04T06:57:26;102359.56;;;17.27;54.19
38630;BME280;24384;51.988;4.644;2023-06-04T06:59:52;102361.13;;;17.32;54.83
38630;BME280;24384;51.988;4.644;2023-06-04T07:02:19;102360.69;;;17.45;55.60
38630;BME280;24384;51.988;4.644;2023-06-04T07:04:44;102358.81;;;17.47;53.57
38630;BME280;24384;51.988;4.644;2023-06-04T07:07:10;102364.44;;;17.63;53.13
38630;BME280;24384;51.988;4.644;2023-06-04T07:09:35;102362.09;;;17.55;53.54
38630;BME280;24384;51.988;4.644;2023-06-04T07:12:01;102368.41;;;17.75;54.59
38630;BME280;24384;51.988;4.644;2023-06-04T07:14:26;102370.97;;;18.01;51.74
38630;BME280;24384;51.988;4.644;2023-06-04T07:16:51;102368.50;;;18.19;51.59
38630;BME280;24384;51.988;4.644;2023-06-04T07:19:16;102369.47;;;18.16;53.41
38630;BME280;24384;51.988;4.644;2023-06-04T07:21:42;102367.50;;;18.21;50.63
38630;BME280;24384;51.988;4.644;2023-06-04T07:24:07;102369.28;;;18.21;49.89
38630;BME280;24384;51.988;4.644;2023-06-04T07:26:32;102369.41;;;18.40;50.30
38630;BME280;24384;51.988;4.644;2023-06-04T07:28:57;102365.59;;;18.46;50.64
38630;BME280;24384;51.988;4.644;2023-06-04T07:31:23;102374.00;;;18.36;49.64
38630;BME280;24384;51.988;4.644;2023-06-04T07:33:48;102373.78;;;18.41;51.40
38630;BME280;24384;51.988;4.644;2023-06-04T07:36:14;102365.78;;;18.41;51.27
38630;BME280;24384;51.988;4.644;2023-06-04T07:38:39;102368.06;;;18.50;51.11
38630;BME280;24384;51.988;4.644;2023-06-04T07:41:05;102374.31;;;18.51;49.98
38630;BME280;24384;51.988;4.644;2023-06-04T07:43:32;102363.41;;;18.55;50.06
38630;BME280;24384;51.988;4.644;2023-06-04T07:45:58;102365.59;;;18.88;50.40
38630;BME280;24384;51.988;4.644;2023-06-04T07:48:23;102362.44;;;18.99;51.11
38630;BME280;24384;51.988;4.644;2023-06-04T07:50:55;102361.63;;;19.18;49.59
38630;BME280;24384;51.988;4.644;2023-06-04T07:53:20;102370.22;;;19.24;48.10
38630;BME280;24384;51.988;4.644;2023-06-04T07:55:46;102364.22;;;19.19;47.73
38630;BME280;24384;51.988;4.644;2023-06-04T07:58:11;102362.19;;;19.24;49.09
38630;BME280;24384;51.988;4.644;2023-06-04T08:00:37;102360.06;;;19.12;50.22
38630;BME280;24384;51.988;4.644;2023-06-04T08:03:02;102366.25;;;19.33;50.32
38630;BME280;24384;51.988;4.644;2023-06-04T08:05:28;102364.59;;;19.30;49.12
38630;BME280;24384;51.988;4.644;2023-06-04T08:07:53;102364.16;;;19.40;47.99
38630;BME280;24384;51.988;4.644;2023-06-04T08:10:18;102365.97;;;19.20;47.30
38630;BME280;24384;51.988;4.644;2023-06-04T08:12:44;102372.59;;;19.51;48.16
38630;BME280;24384;51.988;4.644;2023-06-04T08:15:10;102363.75;;;19.49;49.61
38630;BME280;24384;51.988;4.644;2023-06-04T08:17:36;102371.38;;;19.77;48.84
38630;BME280;24384;51.988;4.644;2023-06-04T08:20:03;102371.31;;;19.79;45.87
38630;BME280;24384;51.988;4.644;2023-06-04T08:22:31;102364.06;;;19.81;50.11
38630;BME280;24384;51.988;4.644;2023-06-04T08:24:56;102369.81;;;20.10;46.29
38630;BME280;24384;51.988;4.644;2023-06-04T08:27:22;102369.31;;;20.01;49.18
38630;BME280;24384;51.988;4.644;2023-06-04T08:29:47;102376.00;;;20.29;47.38
38630;BME280;24384;51.988;4.644;2023-06-04T08:32:13;102375.34;;;20.24;49.26
38630;BME280;24384;51.988;4.644;2023-06-04T08:34:38;102372.22;;;20.33;46.63
38630;BME280;24384;51.988;4.644;2023-06-04T08:37:04;102369.84;;;20.27;47.36
38630;BME280;24384;51.988;4.644;2023-06-04T08:39:29;102380.34;;;20.32;46.46
38630;BME280;24384;51.988;4.644;2023-06-04T08:41:59;102375.56;;;20.56;50.15
38630;BME280;24384;51.988;4.644;2023-06-04T08:44:29;102385.06;;;20.81;44.87
38630;BME280;24384;51.988;4.644;2023-06-04T08:47:01;102373.97;;;21.04;45.13
38630;BME280;24384;51.988;4.644;2023-06-04T08:49:32;102385.81;;;21.00;46.78
38630;BME280;24384;51.988;4.644;2023-06-04T08:51:59;102382.09;;;21.03;47.39
38630;BME280;24384;51.988;4.644;2023-06-04T08:54:25;102385.19;;;21.28;46.74
38630;BME280;24384;51.988;4.644;2023-06-04T08:56:51;102378.97;;;21.44;46.79
38630;BME280;24384;51.988;4.644;2023-06-04T08:59:17;102386.50;;;21.37;49.11
38630;BME280;24384;51.988;4.644;2023-06-04T09:01:44;102374.19;;;21.67;48.42
38630;BME280;24384;51.988;4.644;2023-06-04T09:04:10;102391.78;;;21.88;48.35
38630;BME280;24384;51.988;4.644;2023-06-04T09:06:39;102374.97;;;21.69;46.88
38630;BME280;24384;51.988;4.644;2023-06-04T09:09:09;102385.19;;;21.78;46.91
38630;BME280;24384;51.988;4.644;2023-06-04T09:11:56;102390.06;;;22.03;45.44
38630;BME280;24384;51.988;4.644;2023-06-04T09:14:24;102387.78;;;22.43;45.31
38630;BME280;24384;51.988;4.644;2023-06-04T09:16:52;102382.56;;;22.70;45.49
38630;BME280;24384;51.988;4.644;2023-06-04T09:19:26;102376.53;;;22.81;42.66
38630;BME280;24384;51.988;4.644;2023-06-04T09:21:58;102372.16;;;22.95;41.88
38630;BME280;24384;51.988;4.644;2023-06-04T09:24:44;102378.44;;;23.24;43.10
38630;BME280;24384;51.988;4.644;2023-06-04T09:27:19;102371.22;;;23.39;42.85
38630;BME280;24384;51.988;4.644;2023-06-04T09:29:53;102376.41;;;23.56;42.00
38630;BME280;24384;51.988;4.644;2023-06-04T09:34:48;102384.00;;;23.64;39.78
38630;BME280;24384;51.988;4.644;2023-06-04T09:37:21;102386.38;;;23.69;39.51
38630;BME280;24384;51.988;4.644;2023-06-04T09:39:58;102391.25;;;23.91;38.39
38630;BME280;24384;51.988;4.644;2023-06-04T09:42:26;102393.19;;;23.89;38.41
38630;BME280;24384;51.988;4.644;2023-06-04T09:44:53;102385.34;;;23.71;39.83
38630;BME280;24384;51.988;4.644;2023-06-04T09:47:26;102383.94;;;23.78;41.95
38630;BME280;24384;51.988;4.644;2023-06-04T09:50:04;102388.66;;;23.89;42.34
38630;BME280;24384;51.988;4.644;2023-06-04T09:52:37;102383.91;;;24.07;39.65
38630;BME280;24384;51.988;4.644;2023-06-04T09:55:17;102390.25;;;24.34;38.84
38630;BME280;24384;51.988;4.644;2023-06-04T09:57:46;102389.44;;;24.19;39.25
38630;BME280;24384;51.988;4.644;2023-06-04T10:00:15;102389.13;;;24.51;39.22
38630;BME280;24384;51.988;4.644;2023-06-04T10:02:43;102395.88;;;24.58;39.88
38630;BME280;24384;51.988;4.644;2023-06-04T10:05:16;102394.63;;;24.49;39.95
38630;BME280;24384;51.988;4.644;2023-06-04T10:07:56;102400.56;;;24.54;37.20
38630;BME280;24384;51.988;4.644;2023-06-04T10:10:26;102392.53;;;24.67;39.79
38630;BME280;24384;51.988;4.644;2023-06-04T10:13:00;102390.59;;;24.82;39.87
38630;BME280;24384;51.988;4.644;2023-06-04T10:15:27;102378.44;;;25.15;38.80
38630;BME280;24384;51.988;4.644;2023-06-04T10:17:58;102383.06;;;25.38;38.60
38630;BME280;24384;51.988;4.644;2023-06-04T10:20:25;102382.41;;;25.48;38.80
38630;BME280;24384;51.988;4.644;2023-06-04T10:22:51;102377.78;;;25.24;38.72
38630;BME280;24384;51.988;4.644;2023-06-04T10:25:19;102385.19;;;25.59;37.32
38630;BME280;24384;51.988;4.644;2023-06-04T10:27:45;102381.19;;;25.65;36.40
38630;BME280;24384;51.988;4.644;2023-06-04T10:30:14;102375.94;;;25.50;38.60
38630;BME280;24384;51.988;4.644;2023-06-04T10:32:40;102380.00;;;25.56;37.52
38630;BME280;24384;51.988;4.644;2023-06-04T10:35:06;102375.56;;;25.68;36.53
38630;BME280;24384;51.988;4.644;2023-06-04T10:37:36;102386.50;;;25.28;39.57
38630;BME280;24384;51.988;4.644;2023-06-04T10:40:04;102388.56;;;25.24;39.58
38630;BME280;24384;51.988;4.644;2023-06-04T10:42:41;102391.16;;;25.00;41.08
38630;BME280;24384;51.988;4.644;2023-06-04T10:45:14;102378.50;;;25.26;38.00
38630;BME280;24384;51.988;4.644;2023-06-04T10:47:39;102388.91;;;25.19;38.57
38630;BME280;24384;51.988;4.644;2023-06-04T10:50:11;102382.75;;;25.43;36.49
38630;BME280;24384;51.988;4.644;2023-06-04T10:52:51;102382.13;;;25.77;34.50
38630;BME280;24384;51.988;4.644;2023-06-04T10:55:16;102372.22;;;25.88;34.95
38630;BME280;24384;51.988;4.644;2023-06-04T10:57:51;102394.25;;;26.08;35.55
38630;BME280;24384;51.988;4.644;2023-06-04T11:00:17;102378.38;;;26.27;34.43
38630;BME280;24384;51.988;4.644;2023-06-04T11:02:54;102382.25;;;26.12;35.64
38630;BME280;24384;51.988;4.644;2023-06-04T11:05:20;102382.03;;;26.26;35.18
38630;BME280;24384;51.988;4.644;2023-06-04T11:07:49;102374.97;;;26.13;39.01
38630;BME280;24384;51.988;4.644;2023-06-04T11:10:15;102378.75;;;26.10;35.74
38630;BME280;24384;51.988;4.644;2023-06-04T11:15:09;102385.16;;;26.44;34.26
38630;BME280;24384;51.988;4.644;2023-06-04T11:17:35;102391.34;;;26.47;35.05
38630;BME280;24384;51.988;4.644;2023-06-04T11:20:00;102380.84;;;26.66;32.95
38630;BME280;24384;51.988;4.644;2023-06-04T11:22:26;102380.53;;;26.47;35.46
38630;BME280;24384;51.988;4.644;2023-06-04T11:24:57;102378.28;;;26.40;34.78
38630;BME280;24384;51.988;4.644;2023-06-04T11:27:26;102375.13;;;26.22;33.72
38630;BME280;24384;51.988;4.644;2023-06-04T11:29:52;102370.59;;;26.58;35.50
38630;BME280;24384;51.988;4.644;2023-06-04T11:32:24;102367.88;;;26.58;32.15
38630;BME280;24384;51.988;4.644;2023-06-04T11:34:49;102374.91;;;26.61;32.74
38630;BME280;24384;51.988;4.644;2023-06-04T11:37:15;102369.16;;;26.66;33.89
38630;BME280;24384;51.988;4.644;2023-06-04T11:39:40;102365.16;;;26.83;33.71
38630;BME280;24384;51.988;4.644;2023-06-04T11:42:08;102362.88;;;26.65;36.27
38630;BME280;24384;51.988;4.644;2023-06-04T11:44:33;102366.09;;;26.70;35.22
38630;BME280;24384;51.988;4.644;2023-06-04T11:46:59;102355.84;;;26.62;33.04
38630;BME280;24384;51.988;4.644;2023-06-04T11:49:24;102356.19;;;26.58;33.91
38630;BME280;24384;51.988;4.644;2023-06-04T11:51:52;102357.28;;;26.55;34.83
38630;BME280;24384;51.988;4.644;2023-06-04T11:54:19;102345.63;;;26.55;36.98
38630;BME280;24384;51.988;4.644;2023-06-04T11:56:48;102347.03;;;26.36;34.73
38630;BME280;24384;51.988;4.644;2023-06-04T11:59:18;102351.88;;;26.55;35.23
38630;BME280;24384;51.988;4.644;2023-06-04T12:01:45;102350.25;;;26.41;34.74
38630;BME280;24384;51.988;4.644;2023-06-04T12:04:18;102352.22;;;26.75;32.66
38630;BME280;24384;51.988;4.644;2023-06-04T12:07:11;102352.59;;;26.82;35.69
38630;BME280;24384;51.988;4.644;2023-06-04T12:09:37;102345.94;;;26.74;34.75
38630;BME280;24384;51.988;4.644;2023-06-04T12:12:08;102346.34;;;26.45;35.90
38630;BME280;24384;51.988;4.644;2023-06-04T12:14:36;102345.25;;;26.48;34.36
38630;BME280;24384;51.988;4.644;2023-06-04T12:17:06;102343.28;;;26.61;33.91
38630;BME280;24384;51.988;4.644;2023-06-04T12:19:47;102343.59;;;26.70;32.77
38630;BME280;24384;51.988;4.644;2023-06-04T12:22:27;102340.06;;;27.03;33.55
38630;BME280;24384;51.988;4.644;2023-06-04T12:24:56;102348.66;;;26.86;33.44
38630;BME280;24384;51.988;4.644;2023-06-04T12:27:34;102345.72;;;26.89;32.52
38630;BME280;24384;51.988;4.644;2023-06-04T12:30:12;102345.97;;;26.97;32.99
38630;BME280;24384;51.988;4.644;2023-06-04T12:32:48;102332.19;;;27.00;33.99
38630;BME280;24384;51.988;4.644;2023-06-04T12:35:23;102338.22;;;27.15;32.52
38630;BME280;24384;51.988;4.644;2023-06-04T12:37:59;102339.22;;;27.25;32.05
38630;BME280;24384;51.988;4.644;2023-06-04T12:40:54;102342.91;;;27.13;31.25
38630;BME280;24384;51.988;4.644;2023-06-04T12:43:22;102346.47;;;27.13;32.94
38630;BME280;24384;51.988;4.644;2023-06-04T12:45:55;102341.53;;;27.30;30.43
38630;BME280;24384;51.988;4.644;2023-06-04T12:48:30;102338.63;;;27.33;32.80
38630;BME280;24384;51.988;4.644;2023-06-04T12:51:08;102338.75;;;27.31;31.96
38630;BME280;24384;51.988;4.644;2023-06-04T12:53:48;102332.84;;;27.38;31.30
38630;BME280;24384;51.988;4.644;2023-06-04T12:56:24;102332.31;;;26.98;32.21
38630;BME280;24384;51.988;4.644;2023-06-04T12:58:53;102335.53;;;27.38;30.38